La Pine, OR

12:54 AM PDT on October 26, 2014 (GMT -0700)
Deedon Lane | Change Station
CLOSE
Current Station
Personal Weather Station
Location: La Pine, OR
Elevation: 4256 ft
Nearby Weather Stations

Elev 4256 ft 43.72 °N, 121.53 °W | Updated 7 minutes ago

Partly Cloudy
Partly Cloudy
37.2 °F
Feels Like 37 °F
N
0.0
Wind Variable Wind from SW
Gusts 1.0 mph

Today
High -- | Low -- °F
--% Chance of Precip.
Yesterday
High -- | Low -- °F
Precip. -- in
7:34 AM 6:05 PM
Waxing Crescent, 6% visible
Pressure 29.97 in
Visibility 10.0 miles
Clouds Clear
Windchill 37 °F
Dew Point 33 °F
Humidity 86%
Rainfall 0.36 in
Snow Depth Not available.
UV 0 out of 12
Pollen .30 out of 12
Air Quality Not available.
Flu Activity Sporadic
METAR KBDN 260735Z AUTO 23007KT 10SM CLR 05/01 A2997 RMK AO2

More Conditions Fewer Conditions

Pressure 29.97 in
Visibility 10.0 miles
Clouds Clear
Windchill 37 °F
Dew Point 33 °F
Humidity 86%
Rainfall 0.36 in
Snow Depth Not available.
UV 0 out of 12
Pollen .30 out of 12
Air Quality Not available.
Flu Activity Sporadic
METAR KBDN 260735Z AUTO 23007KT 10SM CLR 05/01 A2997 RMK AO2

More Conditions Fewer Conditions

10-Day Weather Forecast

Almanac

Astronomy

Oct. 26, 2014 Rise Set
Actual Time 7:34 AM PDT 6:05 PM PDT
Civil Twilight 7:04 AM PDT 6:34 PM PDT
Nautical Twilight 6:31 AM PDT 7:08 PM PDT
Astronomical Twilight 5:57 AM PDT 7:41 PM PDT
Moon 10:21 AM PDT 8:17 PM PDT
Length of Visible Light 11h 29m
Length of Day
10h 30m
Tomorrow will be 2m 45s shorter.
Waxing Crescent, 6% of the Moon is Illuminated
Today
Waxing Crescent
Oct 30
First Quarter
Nov 6
Full
Nov 14
Last Quarter
Nov 22
New

Today's Extremes

State Highs State Lows

Community

WunderPhotos

Upload Photos

1,765,115 photos uploaded!

Nearby

Snow Depth

Station Depth Elevation
Irish Taylor 1 in 5500 ft
Cascade Summit 0 in 4880 ft
New Crescent Lake 0 in 4800 ft
Salt Creek Falls 0 in 4000 ft
Roaring River 0 in 4900 ft

Earthquake Activity

City Distance Mag. Time & Date
No recent earthquake activity has been reported nearby.
Minimum magnitude displayed is 2.5.

Coastal Water Temperatures

Place Temperature
No Stations Reporting

Nearby Weather Stations